SIA242 YSSY-WSSS
Flight info
| Callsign | SIA242 |
|---|---|
| Flight time | N/A |
| Altitude | 38000 |
| Route | KADOM A576 PKS G222 KADBA/N0488F400 G222 SAPDA A585 PLB G579 SJ |
| Aircraft | A359/H-SDE2E3GHIJ3J4J5LM1ORWXY/LB1D1 |
Departure
| Time | 2026-05-07 07:55 |
|---|---|
| Airport | Sydney Kingsford Smith International Airport (YSSY) |
Arrival
| Time | N/A |
|---|---|
| Airport | Singapore Changi Airport (WSSS) |
| Time | Latitude | Longitude | Altitude | Speed | Heading |
|---|---|---|---|---|---|
| 2026-05-07 07:30 | -33.94013 | 151.16616 | 36 ft | 0 kts | 345° |
| 2026-05-07 07:42 | -33.94002 | 151.16612 | 36 ft | 4 kts | 345° |
| 2026-05-07 07:43 | -33.93989 | 151.16608 | 37 ft | 0 kts | 345° |
| 2026-05-07 07:43 | -33.94012 | 151.16615 | 36 ft | 0 kts | 345° |
| 2026-05-07 07:45 | -33.94018 | 151.16617 | 35 ft | 4 kts | 346° |
| 2026-05-07 07:45 | -33.94045 | 151.16623 | 36 ft | 4 kts | 355° |
| 2026-05-07 07:45 | -33.94072 | 151.16624 | 35 ft | 4 kts | 5° |
| 2026-05-07 07:45 | -33.94098 | 151.16618 | 34 ft | 4 kts | 24° |
| 2026-05-07 07:46 | -33.94118 | 151.16601 | 34 ft | 3 kts | 68° |
| 2026-05-07 07:46 | -33.94119 | 151.16595 | 34 ft | 4 kts | 74° |
| 2026-05-07 07:49 | -33.94110 | 151.16635 | 33 ft | 11 kts | 74° |
| 2026-05-07 07:49 | -33.94078 | 151.16773 | 36 ft | 20 kts | 74° |
| 2026-05-07 07:50 | -33.94036 | 151.16948 | 36 ft | 23 kts | 74° |
| 2026-05-07 07:50 | -33.93990 | 151.17145 | 36 ft | 26 kts | 74° |
| 2026-05-07 07:50 | -33.93937 | 151.17366 | 33 ft | 29 kts | 74° |
| 2026-05-07 07:50 | -33.93885 | 151.17582 | 35 ft | 18 kts | 75° |
| 2026-05-07 07:51 | -33.93849 | 151.17737 | 36 ft | 20 kts | 74° |
| 2026-05-07 07:51 | -33.93808 | 151.17912 | 36 ft | 23 kts | 74° |
| 2026-05-07 07:51 | -33.93762 | 151.18108 | 36 ft | 26 kts | 75° |
| 2026-05-07 07:51 | -33.93711 | 151.18323 | 36 ft | 28 kts | 74° |
| 2026-05-07 07:52 | -33.93669 | 151.18500 | 36 ft | 19 kts | 73° |
| 2026-05-07 07:52 | -33.93629 | 151.18662 | 36 ft | 22 kts | 75° |
| 2026-05-07 07:52 | -33.93596 | 151.18809 | 36 ft | 15 kts | 75° |
| 2026-05-07 07:52 | -33.93628 | 151.18927 | 35 ft | 12 kts | 145° |
| 2026-05-07 07:53 | -33.93672 | 151.18947 | 33 ft | 0 kts | 162° |
| 2026-05-07 07:53 | -33.93687 | 151.18952 | 33 ft | 6 kts | 168° |
| 2026-05-07 07:53 | -33.93753 | 151.18941 | 31 ft | 11 kts | 227° |
| 2026-05-07 07:53 | -33.93780 | 151.18871 | 32 ft | 3 kts | 253° |
| 2026-05-07 07:54 | -33.93787 | 151.18843 | 32 ft | 5 kts | 253° |
| 2026-05-07 07:54 | -33.93798 | 151.18797 | 32 ft | 6 kts | 255° |
| 2026-05-07 07:54 | -33.93826 | 151.18676 | 33 ft | 41 kts | 254° |
| 2026-05-07 07:54 | -33.93969 | 151.18074 | 35 ft | 107 kts | 254° |
| 2026-05-07 07:55 | -33.94224 | 151.17036 | 322 ft | 136 kts | 254° |
| 2026-05-07 07:55 | -33.94496 | 151.15956 | 1109 ft | 132 kts | 252° |
| 2026-05-07 07:55 | -33.94760 | 151.14808 | 1647 ft | 152 kts | 254° |
| 2026-05-07 07:55 | -33.95033 | 151.13508 | 2170 ft | 168 kts | 253° |
| 2026-05-07 07:56 | -33.95313 | 151.12068 | 2710 ft | 186 kts | 254° |
| 2026-05-07 07:56 | -33.95471 | 151.10406 | 3099 ft | 215 kts | 267° |
| 2026-05-07 07:56 | -33.95233 | 151.08562 | 3759 ft | 229 kts | 277° |
| 2026-05-07 07:56 | -33.94795 | 151.06708 | 4515 ft | 239 kts | 281° |
| 2026-05-07 07:57 | -33.94227 | 151.04779 | 5259 ft | 248 kts | 283° |
| 2026-05-07 07:57 | -33.93591 | 151.02805 | 6047 ft | 256 kts | 284° |
| 2026-05-07 07:57 | -33.92928 | 151.00780 | 6860 ft | 262 kts | 284° |
| 2026-05-07 07:57 | -33.92268 | 150.98741 | 7731 ft | 266 kts | 284° |
| 2026-05-07 07:58 | -33.91603 | 150.96646 | 8647 ft | 269 kts | 283° |
| 2026-05-07 07:58 | -33.90941 | 150.94519 | 9574 ft | 273 kts | 283° |
| 2026-05-07 07:58 | -33.90274 | 150.92347 | 10410 ft | 281 kts | 283° |
| 2026-05-07 07:58 | -33.89583 | 150.90049 | 10808 ft | 303 kts | 283° |
| 2026-05-07 07:59 | -33.88846 | 150.87580 | 11178 ft | 324 kts | 283° |
| 2026-05-07 07:59 | -33.88067 | 150.84986 | 11618 ft | 341 kts | 284° |
| 2026-05-07 07:59 | -33.87240 | 150.82271 | 12325 ft | 349 kts | 284° |
| 2026-05-07 07:59 | -33.86388 | 150.79509 | 13147 ft | 354 kts | 284° |
| 2026-05-07 08:00 | -33.85525 | 150.76719 | 13988 ft | 357 kts | 284° |
| 2026-05-07 08:00 | -33.84654 | 150.73901 | 14762 ft | 359 kts | 284° |
| 2026-05-07 08:00 | -33.83780 | 150.71075 | 15562 ft | 362 kts | 283° |
| 2026-05-07 08:00 | -33.82900 | 150.68216 | 16294 ft | 367 kts | 283° |
| 2026-05-07 08:01 | -33.82011 | 150.65319 | 17060 ft | 371 kts | 282° |
| 2026-05-07 08:01 | -33.81111 | 150.62386 | 17841 ft | 376 kts | 281° |
| 2026-05-07 08:01 | -33.80212 | 150.59462 | 18580 ft | 380 kts | 281° |
| 2026-05-07 08:01 | -33.79292 | 150.56460 | 19200 ft | 385 kts | 280° |
| 2026-05-07 08:02 | -33.78359 | 150.53423 | 19828 ft | 391 kts | 279° |
| 2026-05-07 08:02 | -33.77408 | 150.50332 | 20460 ft | 397 kts | 279° |
| 2026-05-07 08:02 | -33.76446 | 150.47200 | 21078 ft | 402 kts | 278° |
| 2026-05-07 08:02 | -33.75471 | 150.44038 | 21646 ft | 405 kts | 276° |
| 2026-05-07 08:03 | -33.74481 | 150.40836 | 22207 ft | 412 kts | 276° |
| 2026-05-07 08:03 | -33.73477 | 150.37589 | 22820 ft | 416 kts | 276° |
| 2026-05-07 08:03 | -33.72458 | 150.34307 | 23474 ft | 421 kts | 276° |
| 2026-05-07 08:03 | -33.71423 | 150.30993 | 24055 ft | 426 kts | 276° |
| 2026-05-07 08:04 | -33.70393 | 150.27648 | 24679 ft | 426 kts | 276° |
| 2026-05-07 08:04 | -33.69439 | 150.24291 | 25313 ft | 425 kts | 275° |
| 2026-05-07 08:04 | -33.68532 | 150.20908 | 25894 ft | 426 kts | 275° |
| 2026-05-07 08:04 | -33.67641 | 150.17517 | 26492 ft | 428 kts | 275° |
| 2026-05-07 08:05 | -33.66744 | 150.14099 | 27034 ft | 430 kts | 276° |
| 2026-05-07 08:05 | -33.65834 | 150.10674 | 27599 ft | 432 kts | 276° |
| 2026-05-07 08:05 | -33.64908 | 150.07229 | 28144 ft | 436 kts | 276° |
| 2026-05-07 08:05 | -33.63979 | 150.03807 | 28705 ft | 439 kts | 277° |
| 2026-05-07 08:06 | -33.63024 | 150.00311 | 29223 ft | 442 kts | 277° |
| 2026-05-07 08:06 | -33.62063 | 149.96801 | 29733 ft | 444 kts | 277° |
| 2026-05-07 08:06 | -33.61093 | 149.93270 | 30227 ft | 447 kts | 277° |
| 2026-05-07 08:06 | -33.60116 | 149.89721 | 30638 ft | 449 kts | 278° |
| 2026-05-07 08:07 | -33.59131 | 149.86149 | 30910 ft | 452 kts | 278° |
| 2026-05-07 08:07 | -33.58139 | 149.82553 | 31286 ft | 455 kts | 278° |
| 2026-05-07 08:07 | -33.57143 | 149.78948 | 31688 ft | 456 kts | 279° |
| 2026-05-07 08:07 | -33.56141 | 149.75328 | 32072 ft | 458 kts | 279° |
| 2026-05-07 08:08 | -33.55137 | 149.71699 | 32420 ft | 460 kts | 279° |
| 2026-05-07 08:08 | -33.54127 | 149.68053 | 32763 ft | 462 kts | 280° |
| 2026-05-07 08:08 | -33.53115 | 149.64406 | 33228 ft | 460 kts | 280° |
| 2026-05-07 08:08 | -33.52106 | 149.60783 | 33808 ft | 456 kts | 280° |
| 2026-05-07 08:09 | -33.51101 | 149.57178 | 34139 ft | 457 kts | 280° |
| 2026-05-07 08:09 | -33.50094 | 149.53555 | 34399 ft | 458 kts | 280° |
| 2026-05-07 08:09 | -33.49102 | 149.49996 | 34891 ft | 453 kts | 281° |
| 2026-05-07 08:09 | -33.48109 | 149.46452 | 35571 ft | 444 kts | 281° |
| 2026-05-07 08:10 | -33.47133 | 149.42976 | 36215 ft | 436 kts | 282° |
| 2026-05-07 08:10 | -33.46175 | 149.39559 | 36767 ft | 430 kts | 282° |
| 2026-05-07 08:10 | -33.45231 | 149.36183 | 37259 ft | 426 kts | 283° |
| 2026-05-07 08:10 | -33.44294 | 149.32834 | 37704 ft | 422 kts | 283° |
| 2026-05-07 08:11 | -33.43365 | 149.29513 | 38099 ft | 419 kts | 283° |
| 2026-05-07 08:11 | -33.42436 | 149.26195 | 38221 ft | 420 kts | 283° |
| 2026-05-07 08:11 | -33.41509 | 149.22888 | 38229 ft | 419 kts | 283° |
| 2026-05-07 08:12 | -33.39650 | 149.16280 | 38238 ft | 419 kts | 284° |
| 2026-05-07 08:12 | -33.37784 | 149.09671 | 38235 ft | 419 kts | 284° |
| 2026-05-07 08:13 | -33.35915 | 149.03067 | 38214 ft | 419 kts | 284° |
| 2026-05-07 08:13 | -33.34048 | 148.96480 | 38242 ft | 421 kts | 284° |
| 2026-05-07 08:14 | -33.32161 | 148.89843 | 38241 ft | 422 kts | 284° |
| 2026-05-07 08:14 | -33.30269 | 148.83204 | 38241 ft | 422 kts | 284° |
| 2026-05-07 08:15 | -33.28372 | 148.76562 | 38241 ft | 422 kts | 284° |
| 2026-05-07 08:15 | -33.26470 | 148.69915 | 38248 ft | 424 kts | 284° |
| 2026-05-07 08:16 | -33.24556 | 148.63247 | 38247 ft | 424 kts | 284° |
| 2026-05-07 08:16 | -33.22648 | 148.56616 | 38249 ft | 425 kts | 284° |
| 2026-05-07 08:17 | -33.20726 | 148.49948 | 38249 ft | 425 kts | 284° |
| 2026-05-07 08:17 | -33.18798 | 148.43275 | 38254 ft | 425 kts | 284° |
| 2026-05-07 08:18 | -33.16867 | 148.36608 | 38255 ft | 425 kts | 284° |
| 2026-05-07 08:18 | -33.14933 | 148.29943 | 38258 ft | 425 kts | 285° |
| 2026-05-07 08:19 | -33.12993 | 148.23276 | 38260 ft | 425 kts | 285° |
| 2026-05-07 08:19 | -33.10774 | 148.16710 | 38260 ft | 429 kts | 289° |
| 2026-05-07 08:20 | -33.08312 | 148.10229 | 38265 ft | 429 kts | 289° |
| 2026-05-07 08:20 | -33.05874 | 148.03744 | 38266 ft | 428 kts | 289° |
| 2026-05-07 08:21 | -33.03497 | 147.97282 | 38264 ft | 428 kts | 289° |
| 2026-05-07 08:21 | -33.01120 | 147.90773 | 38264 ft | 428 kts | 289° |
| 2026-05-07 08:22 | -32.98732 | 147.84237 | 38273 ft | 430 kts | 289° |
| 2026-05-07 08:22 | -32.96332 | 147.77698 | 38269 ft | 430 kts | 289° |
| 2026-05-07 08:23 | -32.93934 | 147.71178 | 38270 ft | 429 kts | 289° |
| 2026-05-07 08:23 | -32.91536 | 147.64668 | 38249 ft | 429 kts | 289° |
| 2026-05-07 08:24 | -32.89128 | 147.58138 | 38279 ft | 432 kts | 289° |
| 2026-05-07 08:24 | -32.86722 | 147.51633 | 38279 ft | 433 kts | 289° |
| 2026-05-07 08:25 | -32.84292 | 147.45079 | 38280 ft | 433 kts | 289° |
| 2026-05-07 08:25 | -32.81862 | 147.38536 | 38281 ft | 433 kts | 289° |
| 2026-05-07 08:26 | -32.78204 | 147.28703 | 38287 ft | 434 kts | 290° |
| 2026-05-07 08:26 | -32.75754 | 147.22139 | 38286 ft | 435 kts | 290° |
| 2026-05-07 08:27 | -32.73314 | 147.15613 | 38289 ft | 435 kts | 290° |
| 2026-05-07 08:27 | -32.70854 | 147.09044 | 38285 ft | 435 kts | 290° |
| 2026-05-07 08:28 | -32.68390 | 147.02477 | 38295 ft | 435 kts | 290° |
| 2026-05-07 08:28 | -32.65921 | 146.95913 | 38294 ft | 435 kts | 290° |
| 2026-05-07 08:29 | -32.63451 | 146.89356 | 38299 ft | 436 kts | 290° |
| 2026-05-07 08:29 | -32.60987 | 146.82828 | 38280 ft | 435 kts | 290° |
| 2026-05-07 08:30 | -32.58914 | 146.77345 | 38305 ft | 434 kts | 290° |
| 2026-05-07 08:30 | -32.56457 | 146.70862 | 38303 ft | 434 kts | 290° |
| 2026-05-07 08:31 | -32.53982 | 146.64339 | 38303 ft | 434 kts | 290° |
| 2026-05-07 08:31 | -32.51502 | 146.57819 | 38306 ft | 434 kts | 291° |
| 2026-05-07 08:32 | -32.49021 | 146.51306 | 38312 ft | 434 kts | 291° |
| 2026-05-07 08:32 | -32.46535 | 146.44793 | 38313 ft | 434 kts | 291° |
| 2026-05-07 08:33 | -32.44044 | 146.38278 | 38310 ft | 434 kts | 291° |
| 2026-05-07 08:33 | -32.41550 | 146.31770 | 38318 ft | 434 kts | 291° |
| 2026-05-07 08:34 | -32.39054 | 146.25268 | 38306 ft | 434 kts | 291° |
| 2026-05-07 08:34 | -32.36557 | 146.18776 | 38308 ft | 434 kts | 291° |
| 2026-05-07 08:35 | -32.34069 | 146.12319 | 38310 ft | 434 kts | 291° |
| 2026-05-07 08:35 | -32.31564 | 146.05831 | 38313 ft | 434 kts | 291° |
| 2026-05-07 08:36 | -32.29057 | 145.99348 | 38321 ft | 434 kts | 291° |
| 2026-05-07 08:36 | -32.26545 | 145.92865 | 38322 ft | 433 kts | 291° |
| 2026-05-07 08:37 | -32.24030 | 145.86388 | 38328 ft | 434 kts | 291° |
| 2026-05-07 08:37 | -32.21514 | 145.79918 | 38329 ft | 434 kts | 291° |
| 2026-05-07 08:38 | -32.18994 | 145.73451 | 38325 ft | 433 kts | 291° |
| 2026-05-07 08:38 | -32.16474 | 145.66999 | 38329 ft | 433 kts | 291° |
| 2026-05-07 08:39 | -32.13952 | 145.60552 | 38331 ft | 433 kts | 291° |
| 2026-05-07 08:39 | -32.11445 | 145.54152 | 38334 ft | 433 kts | 291° |
| 2026-05-07 08:40 | -32.08916 | 145.47709 | 38335 ft | 432 kts | 291° |
| 2026-05-07 08:40 | -32.06387 | 145.41279 | 38336 ft | 431 kts | 291° |
| 2026-05-07 08:41 | -32.03859 | 145.34864 | 38338 ft | 431 kts | 291° |
| 2026-05-07 08:41 | -32.01329 | 145.28458 | 38339 ft | 431 kts | 291° |
| 2026-05-07 08:42 | -31.98791 | 145.22052 | 38340 ft | 432 kts | 292° |
| 2026-05-07 08:42 | -31.96246 | 145.15642 | 38342 ft | 432 kts | 292° |
| 2026-05-07 08:43 | -31.93714 | 145.09276 | 38345 ft | 432 kts | 292° |
| 2026-05-07 08:43 | -31.91163 | 145.02875 | 38333 ft | 432 kts | 292° |
| 2026-05-07 08:44 | -31.88612 | 144.96482 | 38340 ft | 431 kts | 292° |
| 2026-05-07 08:44 | -31.86061 | 144.90101 | 38344 ft | 431 kts | 292° |
| 2026-05-07 08:45 | -31.83508 | 144.83726 | 38348 ft | 431 kts | 292° |
| 2026-05-07 08:45 | -31.80950 | 144.77352 | 38347 ft | 431 kts | 292° |
| 2026-05-07 08:46 | -31.78391 | 144.70984 | 38354 ft | 431 kts | 293° |
| 2026-05-07 08:46 | -31.75819 | 144.64600 | 38353 ft | 432 kts | 293° |
| 2026-05-07 08:47 | -31.73262 | 144.58262 | 38355 ft | 432 kts | 293° |
| 2026-05-07 08:47 | -31.70688 | 144.51892 | 38354 ft | 432 kts | 293° |
| 2026-05-07 08:48 | -31.68105 | 144.45513 | 38355 ft | 433 kts | 293° |
| 2026-05-07 08:48 | -31.65518 | 144.39135 | 38355 ft | 433 kts | 293° |
| 2026-05-07 08:49 | -31.62926 | 144.32757 | 38355 ft | 433 kts | 293° |
| 2026-05-07 08:49 | -31.60335 | 144.26390 | 38355 ft | 433 kts | 293° |
| 2026-05-07 08:50 | -31.57736 | 144.20016 | 38358 ft | 433 kts | 293° |
| 2026-05-07 08:50 | -31.55149 | 144.13682 | 38360 ft | 434 kts | 293° |
| 2026-05-07 08:51 | -31.52542 | 144.07300 | 38359 ft | 434 kts | 293° |
| 2026-05-07 08:51 | -31.49933 | 144.00918 | 38362 ft | 434 kts | 293° |
| 2026-05-07 08:52 | -31.47323 | 143.94556 | 38362 ft | 434 kts | 293° |
| 2026-05-07 08:52 | -31.44698 | 143.88174 | 38368 ft | 434 kts | 293° |
| 2026-05-07 08:53 | -31.42075 | 143.81810 | 38368 ft | 434 kts | 293° |
| 2026-05-07 08:53 | -31.39447 | 143.75445 | 38373 ft | 434 kts | 293° |
| 2026-05-07 08:54 | -31.36813 | 143.69075 | 38370 ft | 435 kts | 294° |
| 2026-05-07 08:54 | -31.34191 | 143.62747 | 38371 ft | 435 kts | 294° |
| 2026-05-07 08:55 | -31.31551 | 143.56385 | 38371 ft | 435 kts | 294° |
| 2026-05-07 08:55 | -31.28906 | 143.50024 | 38373 ft | 435 kts | 294° |
| 2026-05-07 08:56 | -31.26257 | 143.43663 | 38375 ft | 434 kts | 294° |
| 2026-05-07 08:56 | -31.23605 | 143.37305 | 38375 ft | 434 kts | 294° |
| 2026-05-07 08:57 | -31.20954 | 143.30963 | 38373 ft | 434 kts | 294° |
| 2026-05-07 08:57 | -31.18301 | 143.24625 | 38366 ft | 434 kts | 294° |
| 2026-05-07 08:58 | -31.15661 | 143.18329 | 38376 ft | 434 kts | 294° |
| 2026-05-07 08:58 | -31.13000 | 143.11995 | 38379 ft | 434 kts | 294° |
| 2026-05-07 08:59 | -31.10335 | 143.05664 | 38379 ft | 434 kts | 294° |
| 2026-05-07 08:59 | -31.07666 | 142.99331 | 38373 ft | 434 kts | 294° |
| 2026-05-07 09:00 | -31.04997 | 142.93009 | 38382 ft | 434 kts | 294° |
| 2026-05-07 09:00 | -31.02324 | 142.86691 | 38381 ft | 434 kts | 294° |
| 2026-05-07 09:01 | -30.99648 | 142.80378 | 38381 ft | 434 kts | 294° |
| 2026-05-07 09:01 | -30.96968 | 142.74065 | 38383 ft | 435 kts | 294° |
| 2026-05-07 09:02 | -30.94301 | 142.67793 | 38385 ft | 435 kts | 294° |
| 2026-05-07 09:02 | -30.91610 | 142.61474 | 38385 ft | 435 kts | 294° |
| 2026-05-07 09:03 | -30.88918 | 142.55165 | 38387 ft | 435 kts | 294° |
| 2026-05-07 09:03 | -30.86219 | 142.48850 | 38386 ft | 435 kts | 294° |
| 2026-05-07 09:04 | -30.83525 | 142.42559 | 38394 ft | 433 kts | 294° |
| 2026-05-07 09:04 | -30.80844 | 142.36310 | 38382 ft | 431 kts | 294° |
| 2026-05-07 09:05 | -30.78163 | 142.30068 | 38386 ft | 431 kts | 294° |
| 2026-05-07 09:05 | -30.75478 | 142.23827 | 38385 ft | 432 kts | 295° |
| 2026-05-07 09:06 | -30.72784 | 142.17575 | 38391 ft | 432 kts | 295° |
| 2026-05-07 09:06 | -30.70106 | 142.11373 | 38393 ft | 432 kts | 295° |
| 2026-05-07 09:07 | -30.67389 | 142.05091 | 38395 ft | 432 kts | 295° |
| 2026-05-07 09:07 | -30.64706 | 141.98897 | 38388 ft | 431 kts | 295° |
| 2026-05-07 09:08 | -30.62008 | 141.92679 | 38389 ft | 431 kts | 295° |
| 2026-05-07 09:08 | -30.59309 | 141.86469 | 38389 ft | 431 kts | 295° |
| 2026-05-07 09:09 | -30.56604 | 141.80254 | 38391 ft | 431 kts | 295° |
| 2026-05-07 09:09 | -30.53896 | 141.74044 | 38390 ft | 431 kts | 295° |
| 2026-05-07 09:10 | -30.51188 | 141.67844 | 38388 ft | 431 kts | 295° |
| 2026-05-07 09:10 | -30.48477 | 141.61649 | 38390 ft | 431 kts | 295° |
| 2026-05-07 09:11 | -30.45756 | 141.55457 | 38390 ft | 431 kts | 295° |
| 2026-05-07 09:11 | -30.43037 | 141.49265 | 38394 ft | 431 kts | 295° |
| 2026-05-07 09:12 | -30.40320 | 141.43079 | 38389 ft | 431 kts | 295° |
| 2026-05-07 09:12 | -30.37597 | 141.36898 | 38388 ft | 431 kts | 295° |
| 2026-05-07 09:13 | -30.34886 | 141.30760 | 38388 ft | 431 kts | 295° |
| 2026-05-07 09:13 | -30.32150 | 141.24577 | 38388 ft | 431 kts | 295° |
| 2026-05-07 09:14 | -30.29420 | 141.18400 | 38392 ft | 431 kts | 295° |
| 2026-05-07 09:14 | -30.26686 | 141.12226 | 38390 ft | 431 kts | 295° |
| 2026-05-07 09:15 | -30.23944 | 141.06049 | 38391 ft | 431 kts | 295° |
| 2026-05-07 09:15 | -30.21200 | 140.99879 | 38389 ft | 431 kts | 296° |
| 2026-05-07 09:16 | -30.18467 | 140.93750 | 38391 ft | 431 kts | 296° |
| 2026-05-07 09:16 | -30.15718 | 140.87588 | 38381 ft | 431 kts | 296° |
| 2026-05-07 09:17 | -30.12968 | 140.81428 | 38387 ft | 431 kts | 296° |
| 2026-05-07 09:17 | -30.10216 | 140.75277 | 38387 ft | 431 kts | 296° |
| 2026-05-07 09:18 | -30.07458 | 140.69123 | 38390 ft | 431 kts | 296° |
| 2026-05-07 09:18 | -30.04697 | 140.62974 | 38387 ft | 431 kts | 296° |
| 2026-05-07 09:19 | -30.01935 | 140.56835 | 38390 ft | 431 kts | 296° |
| 2026-05-07 09:19 | -29.99168 | 140.50692 | 38390 ft | 431 kts | 296° |
| 2026-05-07 09:20 | -29.96415 | 140.44591 | 38389 ft | 431 kts | 296° |
| 2026-05-07 09:20 | -29.93642 | 140.38455 | 38390 ft | 432 kts | 296° |
| 2026-05-07 09:21 | -29.90864 | 140.32315 | 38393 ft | 432 kts | 296° |
| 2026-05-07 09:21 | -29.88081 | 140.26178 | 38392 ft | 432 kts | 296° |
| 2026-05-07 09:22 | -29.85751 | 140.21045 | 38390 ft | 432 kts | 296° |
| 2026-05-07 09:22 | -29.82965 | 140.14915 | 38389 ft | 432 kts | 296° |
| 2026-05-07 09:23 | -29.80194 | 140.08829 | 38392 ft | 431 kts | 296° |
| 2026-05-07 09:23 | -29.77406 | 140.02716 | 38391 ft | 430 kts | 296° |
| 2026-05-07 09:24 | -29.74624 | 139.96626 | 38383 ft | 429 kts | 296° |
| 2026-05-07 09:24 | -29.71842 | 139.90546 | 38393 ft | 429 kts | 296° |
| 2026-05-07 09:25 | -29.69058 | 139.84469 | 38390 ft | 429 kts | 296° |
| 2026-05-07 09:25 | -29.66267 | 139.78396 | 38388 ft | 429 kts | 296° |
| 2026-05-07 09:26 | -29.63497 | 139.72368 | 38383 ft | 429 kts | 296° |
| 2026-05-07 09:26 | -29.60703 | 139.66297 | 38389 ft | 430 kts | 296° |
| 2026-05-07 09:27 | -29.57903 | 139.60224 | 38395 ft | 430 kts | 296° |
| 2026-05-07 09:28 | -29.53700 | 139.51124 | 38387 ft | 430 kts | 296° |
| 2026-05-07 09:28 | -29.50893 | 139.45053 | 38390 ft | 430 kts | 296° |
| 2026-05-07 09:29 | -29.48083 | 139.38986 | 38392 ft | 430 kts | 296° |
| 2026-05-07 09:29 | -29.45269 | 139.32922 | 38392 ft | 430 kts | 297° |
| 2026-05-07 09:30 | -29.42453 | 139.26864 | 38385 ft | 430 kts | 297° |
| 2026-05-07 09:30 | -29.39634 | 139.20813 | 38396 ft | 430 kts | 297° |
| 2026-05-07 09:31 | -29.36814 | 139.14766 | 38398 ft | 430 kts | 297° |
| 2026-05-07 09:31 | -29.34006 | 139.08757 | 38396 ft | 430 kts | 297° |
| 2026-05-07 09:32 | -29.31173 | 139.02701 | 38390 ft | 431 kts | 297° |
| 2026-05-07 09:32 | -29.28335 | 138.96645 | 38393 ft | 431 kts | 297° |
| 2026-05-07 09:33 | -29.25495 | 138.90593 | 38394 ft | 431 kts | 297° |
| 2026-05-07 09:33 | -29.22651 | 138.84542 | 38388 ft | 431 kts | 297° |
| 2026-05-07 09:34 | -29.19804 | 138.78494 | 38396 ft | 432 kts | 297° |
| 2026-05-07 09:34 | -29.16953 | 138.72447 | 38392 ft | 432 kts | 297° |
| 2026-05-07 09:35 | -29.14099 | 138.66402 | 38393 ft | 432 kts | 297° |
| 2026-05-07 09:35 | -29.11243 | 138.60362 | 38386 ft | 432 kts | 297° |
| 2026-05-07 09:36 | -29.08402 | 138.54363 | 38383 ft | 431 kts | 297° |
| 2026-05-07 09:36 | -29.05542 | 138.48332 | 38389 ft | 432 kts | 297° |
| 2026-05-07 09:37 | -29.02678 | 138.42303 | 38379 ft | 431 kts | 297° |
| 2026-05-07 09:37 | -28.99811 | 138.36277 | 38385 ft | 432 kts | 297° |
| 2026-05-07 09:38 | -28.96942 | 138.30254 | 38383 ft | 432 kts | 297° |
| 2026-05-07 09:38 | -28.94086 | 138.24268 | 38380 ft | 432 kts | 297° |
| 2026-05-07 09:39 | -28.91211 | 138.18250 | 38379 ft | 432 kts | 297° |
| 2026-05-07 09:39 | -28.88327 | 138.12224 | 38377 ft | 432 kts | 297° |
| 2026-05-07 09:40 | -28.85443 | 138.06205 | 38377 ft | 432 kts | 297° |
| 2026-05-07 09:40 | -28.82557 | 138.00193 | 38377 ft | 432 kts | 297° |
| 2026-05-07 09:41 | -28.79663 | 137.94172 | 38375 ft | 433 kts | 297° |
| 2026-05-07 09:41 | -28.76769 | 137.88160 | 38371 ft | 433 kts | 298° |
| 2026-05-07 09:42 | -28.73871 | 137.82149 | 38358 ft | 433 kts | 298° |
| 2026-05-07 09:42 | -28.70981 | 137.76163 | 38370 ft | 430 kts | 298° |
| 2026-05-07 09:43 | -28.68094 | 137.70192 | 38370 ft | 430 kts | 298° |
| 2026-05-07 09:43 | -28.65202 | 137.64220 | 38369 ft | 430 kts | 298° |
| 2026-05-07 09:44 | -28.62309 | 137.58253 | 38371 ft | 430 kts | 298° |
| 2026-05-07 09:44 | -28.59431 | 137.52326 | 38371 ft | 430 kts | 298° |
| 2026-05-07 09:45 | -28.56534 | 137.46368 | 38370 ft | 430 kts | 298° |
| 2026-05-07 09:45 | -28.53635 | 137.40415 | 38373 ft | 430 kts | 298° |
| 2026-05-07 09:46 | -28.50731 | 137.34461 | 38371 ft | 431 kts | 298° |
| 2026-05-07 09:46 | -28.47822 | 137.28507 | 38374 ft | 431 kts | 298° |
| 2026-05-07 09:47 | -28.44912 | 137.22558 | 38375 ft | 431 kts | 298° |
| 2026-05-07 09:47 | -28.42000 | 137.16613 | 38377 ft | 431 kts | 298° |
| 2026-05-07 09:48 | -28.39084 | 137.10668 | 38376 ft | 431 kts | 298° |
| 2026-05-07 09:48 | -28.36168 | 137.04732 | 38377 ft | 431 kts | 298° |
| 2026-05-07 09:49 | -28.33246 | 136.98793 | 38377 ft | 431 kts | 298° |
| 2026-05-07 09:49 | -28.30340 | 136.92893 | 38379 ft | 431 kts | 298° |
| 2026-05-07 09:50 | -28.27409 | 136.86952 | 38375 ft | 431 kts | 298° |
| 2026-05-07 09:50 | -28.24476 | 136.81016 | 38379 ft | 431 kts | 298° |
| 2026-05-07 09:51 | -28.21537 | 136.75077 | 38377 ft | 431 kts | 298° |
| 2026-05-07 09:51 | -28.18590 | 136.69145 | 38378 ft | 431 kts | 298° |
| 2026-05-07 09:52 | -28.15642 | 136.63227 | 38382 ft | 431 kts | 298° |
| 2026-05-07 09:52 | -28.12711 | 136.57350 | 38380 ft | 431 kts | 298° |
| 2026-05-07 09:53 | -28.09759 | 136.51438 | 38378 ft | 431 kts | 298° |
| 2026-05-07 09:53 | -28.06805 | 136.45529 | 38379 ft | 431 kts | 298° |
| 2026-05-07 09:54 | -28.03848 | 136.39625 | 38379 ft | 431 kts | 298° |
| 2026-05-07 09:54 | -28.00888 | 136.33720 | 38379 ft | 431 kts | 299° |
| 2026-05-07 09:55 | -27.97941 | 136.27851 | 38378 ft | 432 kts | 299° |
| 2026-05-07 09:55 | -27.94972 | 136.21945 | 38377 ft | 432 kts | 299° |
| 2026-05-07 09:56 | -27.92002 | 136.16046 | 38381 ft | 432 kts | 299° |
| 2026-05-07 09:56 | -27.89024 | 136.10141 | 38379 ft | 433 kts | 299° |
| 2026-05-07 09:57 | -27.86044 | 136.04237 | 38378 ft | 433 kts | 299° |
| 2026-05-07 09:57 | -27.83056 | 135.98329 | 38375 ft | 433 kts | 299° |
| 2026-05-07 09:58 | -27.80069 | 135.92428 | 38376 ft | 433 kts | 299° |
| 2026-05-07 09:58 | -27.77078 | 135.86530 | 38375 ft | 433 kts | 299° |
| 2026-05-07 09:59 | -27.74080 | 135.80624 | 38378 ft | 433 kts | 299° |
| 2026-05-07 09:59 | -27.71081 | 135.74726 | 38377 ft | 433 kts | 299° |
| 2026-05-07 10:00 | -27.68074 | 135.68820 | 38365 ft | 433 kts | 299° |
| 2026-05-07 10:00 | -27.65093 | 135.62973 | 38378 ft | 432 kts | 299° |
| 2026-05-07 10:01 | -27.62098 | 135.57106 | 38374 ft | 432 kts | 299° |
| 2026-05-07 10:01 | -27.59096 | 135.51233 | 38371 ft | 432 kts | 299° |
| 2026-05-07 10:02 | -27.56093 | 135.45367 | 38370 ft | 432 kts | 299° |
| 2026-05-07 10:02 | -27.53094 | 135.39493 | 38369 ft | 432 kts | 299° |
| 2026-05-07 10:03 | -27.50114 | 135.33612 | 38372 ft | 432 kts | 299° |
| 2026-05-07 10:03 | -27.47131 | 135.27730 | 38373 ft | 432 kts | 299° |
| 2026-05-07 10:04 | -27.44143 | 135.21854 | 38377 ft | 432 kts | 299° |
| 2026-05-07 10:04 | -27.41149 | 135.15981 | 38376 ft | 432 kts | 299° |
| 2026-05-07 10:05 | -27.38154 | 135.10113 | 38378 ft | 432 kts | 299° |
| 2026-05-07 10:05 | -27.35156 | 135.04248 | 38376 ft | 432 kts | 299° |
| 2026-05-07 10:06 | -27.32156 | 134.98386 | 38377 ft | 433 kts | 299° |
| 2026-05-07 10:06 | -27.29154 | 134.92528 | 38375 ft | 435 kts | 299° |
| 2026-05-07 10:07 | -27.26128 | 134.86631 | 38373 ft | 435 kts | 299° |
| 2026-05-07 10:07 | -27.23098 | 134.80734 | 38377 ft | 435 kts | 299° |
| 2026-05-07 10:08 | -27.20087 | 134.74883 | 38373 ft | 435 kts | 299° |
| 2026-05-07 10:08 | -27.17054 | 134.68995 | 38373 ft | 435 kts | 299° |
| 2026-05-07 10:09 | -27.14020 | 134.63116 | 38376 ft | 435 kts | 299° |
| 2026-05-07 10:09 | -27.10985 | 134.57242 | 38375 ft | 436 kts | 299° |
| 2026-05-07 10:10 | -27.07941 | 134.51357 | 38372 ft | 436 kts | 299° |
| 2026-05-07 10:10 | -27.04894 | 134.45476 | 38375 ft | 436 kts | 299° |
| 2026-05-07 10:11 | -27.01845 | 134.39599 | 38374 ft | 437 kts | 299° |
| 2026-05-07 10:11 | -26.98786 | 134.33709 | 38377 ft | 436 kts | 299° |
| 2026-05-07 10:12 | -26.95729 | 134.27832 | 38373 ft | 436 kts | 299° |
| 2026-05-07 10:12 | -26.92693 | 134.22004 | 38384 ft | 436 kts | 299° |
| 2026-05-07 10:13 | -26.89623 | 134.16117 | 38373 ft | 438 kts | 299° |
| 2026-05-07 10:13 | -26.86550 | 134.10232 | 38374 ft | 437 kts | 300° |
| 2026-05-07 10:14 | -26.83998 | 134.05353 | 38372 ft | 436 kts | 300° |
| 2026-05-07 10:14 | -26.80929 | 133.99491 | 38376 ft | 437 kts | 299° |
| 2026-05-07 10:15 | -26.77846 | 133.93609 | 38371 ft | 438 kts | 300° |
| 2026-05-07 10:15 | -26.74754 | 133.87718 | 38368 ft | 438 kts | 300° |
| 2026-05-07 10:16 | -26.71675 | 133.81860 | 38386 ft | 437 kts | 299° |
| 2026-05-07 10:16 | -26.68586 | 133.75992 | 38373 ft | 438 kts | 300° |
| 2026-05-07 10:17 | -26.65488 | 133.70112 | 38369 ft | 439 kts | 300° |
| 2026-05-07 10:17 | -26.62410 | 133.64279 | 38360 ft | 438 kts | 300° |
| 2026-05-07 10:18 | -26.59308 | 133.58410 | 38373 ft | 439 kts | 299° |
| 2026-05-07 10:18 | -26.56200 | 133.52534 | 38368 ft | 440 kts | 299° |
| 2026-05-07 10:19 | -26.53082 | 133.46650 | 38366 ft | 440 kts | 300° |
| 2026-05-07 10:19 | -26.49963 | 133.40771 | 38357 ft | 440 kts | 299° |
| 2026-05-07 10:20 | -26.46838 | 133.34888 | 38368 ft | 440 kts | 299° |
| 2026-05-07 10:20 | -26.43710 | 133.29006 | 38368 ft | 440 kts | 299° |
| 2026-05-07 10:21 | -26.40581 | 133.23130 | 38366 ft | 440 kts | 300° |
| 2026-05-07 10:21 | -26.37461 | 133.17280 | 38338 ft | 442 kts | 300° |
| 2026-05-07 10:22 | -26.34319 | 133.11394 | 38356 ft | 441 kts | 300° |
| 2026-05-07 10:22 | -26.31183 | 133.05531 | 38374 ft | 440 kts | 300° |
| 2026-05-07 10:23 | -26.28050 | 132.99677 | 38372 ft | 440 kts | 300° |
| 2026-05-07 10:23 | -26.24903 | 132.93807 | 38366 ft | 441 kts | 300° |
| 2026-05-07 10:24 | -26.21759 | 132.87950 | 38525 ft | 440 kts | 300° |
| 2026-05-07 10:24 | -26.20189 | 132.85032 | 38866 ft | 438 kts | 300° |
| 2026-05-07 10:24 | -26.18626 | 132.82128 | 39178 ft | 436 kts | 300° |
| 2026-05-07 10:24 | -26.17067 | 132.79230 | 39428 ft | 436 kts | 300° |
| 2026-05-07 10:25 | -26.15510 | 132.76338 | 39638 ft | 436 kts | 300° |
| 2026-05-07 10:25 | -26.13951 | 132.73443 | 39842 ft | 436 kts | 300° |
| 2026-05-07 10:25 | -26.12391 | 132.70548 | 40043 ft | 436 kts | 300° |
| 2026-05-07 10:25 | -26.10833 | 132.67659 | 40243 ft | 436 kts | 300° |
| 2026-05-07 10:26 | -26.09272 | 132.64765 | 40343 ft | 436 kts | 300° |
| 2026-05-07 10:26 | -26.06174 | 132.59032 | 40362 ft | 435 kts | 300° |
| 2026-05-07 10:27 | -26.03052 | 132.53261 | 40360 ft | 436 kts | 300° |
| 2026-05-07 10:27 | -25.99924 | 132.47487 | 40361 ft | 436 kts | 300° |
| 2026-05-07 10:28 | -25.96792 | 132.41711 | 40360 ft | 436 kts | 300° |
| 2026-05-07 10:28 | -25.93651 | 132.35928 | 40362 ft | 438 kts | 299° |
| 2026-05-07 10:29 | -25.90500 | 132.30133 | 40356 ft | 439 kts | 300° |
| 2026-05-07 10:29 | -25.87341 | 132.24330 | 40355 ft | 439 kts | 300° |
| 2026-05-07 10:30 | -25.82595 | 132.15627 | 40345 ft | 439 kts | 299° |
| 2026-05-07 10:30 | -25.79450 | 132.09868 | 40355 ft | 439 kts | 300° |
| 2026-05-07 10:31 | -25.76283 | 132.04077 | 40352 ft | 439 kts | 300° |
| 2026-05-07 10:31 | -25.73114 | 131.98289 | 40360 ft | 439 kts | 299° |
| 2026-05-07 10:32 | -25.69935 | 131.92490 | 40348 ft | 440 kts | 299° |
| 2026-05-07 10:32 | -25.66755 | 131.86696 | 40350 ft | 440 kts | 299° |
| 2026-05-07 10:33 | -25.63589 | 131.80938 | 40351 ft | 439 kts | 299° |
| 2026-05-07 10:33 | -25.60409 | 131.75158 | 40345 ft | 440 kts | 299° |
| 2026-05-07 10:34 | -25.57214 | 131.69358 | 40344 ft | 441 kts | 299° |
| 2026-05-07 10:34 | -25.54017 | 131.63563 | 40337 ft | 440 kts | 299° |
| 2026-05-07 10:35 | -25.50826 | 131.57787 | 40343 ft | 439 kts | 299° |
| 2026-05-07 10:35 | -25.47635 | 131.52017 | 40341 ft | 440 kts | 299° |
| 2026-05-07 10:36 | -25.44451 | 131.46264 | 40337 ft | 441 kts | 299° |
| 2026-05-07 10:36 | -25.41242 | 131.40476 | 40334 ft | 441 kts | 299° |
| 2026-05-07 10:37 | -25.38036 | 131.34700 | 40344 ft | 440 kts | 299° |
| 2026-05-07 10:37 | -25.34829 | 131.28930 | 40332 ft | 441 kts | 299° |
| 2026-05-07 10:38 | -25.31615 | 131.23154 | 40328 ft | 441 kts | 299° |
| 2026-05-07 10:38 | -25.28393 | 131.17372 | 40332 ft | 441 kts | 299° |
| 2026-05-07 10:39 | -25.25174 | 131.11602 | 40320 ft | 441 kts | 299° |
| 2026-05-07 10:39 | -25.21952 | 131.05832 | 40324 ft | 442 kts | 299° |
| 2026-05-07 10:40 | -25.18742 | 131.00091 | 40323 ft | 442 kts | 299° |
| 2026-05-07 10:40 | -25.15099 | 130.94613 | 40325 ft | 444 kts | 306° |
| 2026-05-07 10:41 | -25.11157 | 130.89344 | 40319 ft | 445 kts | 307° |
| 2026-05-07 10:41 | -25.07164 | 130.84111 | 40319 ft | 446 kts | 307° |
| 2026-05-07 10:42 | -25.03167 | 130.78877 | 40320 ft | 446 kts | 307° |
| 2026-05-07 10:42 | -24.99213 | 130.73686 | 40314 ft | 446 kts | 307° |
| 2026-05-07 10:43 | -24.95223 | 130.68447 | 40311 ft | 446 kts | 307° |
| 2026-05-07 10:43 | -24.91242 | 130.63225 | 40317 ft | 444 kts | 306° |
| 2026-05-07 10:44 | -24.87271 | 130.58023 | 40307 ft | 443 kts | 306° |
| 2026-05-07 10:44 | -24.83304 | 130.52830 | 40308 ft | 443 kts | 306° |
| 2026-05-07 10:45 | -24.79331 | 130.47636 | 40309 ft | 443 kts | 306° |
| 2026-05-07 10:45 | -24.75346 | 130.42432 | 40305 ft | 444 kts | 306° |
| 2026-05-07 10:46 | -24.71395 | 130.37279 | 40302 ft | 443 kts | 306° |
| 2026-05-07 10:46 | -24.67414 | 130.32092 | 40302 ft | 443 kts | 306° |
| 2026-05-07 10:47 | -24.63432 | 130.26908 | 40302 ft | 443 kts | 306° |
| 2026-05-07 10:47 | -24.59448 | 130.21729 | 40293 ft | 444 kts | 306° |
| 2026-05-07 10:48 | -24.55486 | 130.16583 | 40300 ft | 443 kts | 306° |
| 2026-05-07 10:48 | -24.51506 | 130.11419 | 40300 ft | 443 kts | 306° |
| 2026-05-07 10:49 | -24.47523 | 130.06258 | 40293 ft | 443 kts | 306° |
| 2026-05-07 10:49 | -24.43537 | 130.01097 | 40298 ft | 443 kts | 306° |
| 2026-05-07 10:50 | -24.39543 | 129.95932 | 40301 ft | 444 kts | 306° |
| 2026-05-07 10:50 | -24.35538 | 129.90759 | 40295 ft | 444 kts | 306° |
| 2026-05-07 10:51 | -24.31536 | 129.85594 | 40289 ft | 444 kts | 306° |
| 2026-05-07 10:51 | -24.27533 | 129.80433 | 40306 ft | 444 kts | 306° |
| 2026-05-07 10:52 | -24.23547 | 129.75302 | 40289 ft | 444 kts | 306° |
| 2026-05-07 10:52 | -24.19544 | 129.70154 | 40289 ft | 444 kts | 306° |
| 2026-05-07 10:53 | -24.15536 | 129.65003 | 40292 ft | 443 kts | 306° |
| 2026-05-07 10:53 | -24.11533 | 129.59864 | 40289 ft | 444 kts | 306° |
| 2026-05-07 10:54 | -24.07523 | 129.54721 | 40283 ft | 444 kts | 306° |
| 2026-05-07 10:54 | -24.03535 | 129.49613 | 40287 ft | 443 kts | 306° |
| 2026-05-07 10:55 | -23.99526 | 129.44484 | 40284 ft | 443 kts | 306° |
| 2026-05-07 10:55 | -23.95521 | 129.39364 | 40282 ft | 443 kts | 306° |
| 2026-05-07 10:56 | -23.91513 | 129.34247 | 40288 ft | 443 kts | 306° |
| 2026-05-07 10:56 | -23.87527 | 129.29163 | 40285 ft | 442 kts | 306° |
| 2026-05-07 10:57 | -23.83524 | 129.24063 | 40277 ft | 442 kts | 306° |
| 2026-05-07 10:57 | -23.79523 | 129.18969 | 40283 ft | 442 kts | 306° |
| 2026-05-07 10:58 | -23.75519 | 129.13877 | 40275 ft | 442 kts | 306° |
| 2026-05-07 10:58 | -23.71514 | 129.08790 | 40273 ft | 442 kts | 305° |
| 2026-05-07 10:59 | -23.67508 | 129.03708 | 40273 ft | 441 kts | 305° |
| 2026-05-07 10:59 | -23.63503 | 128.98631 | 40273 ft | 441 kts | 305° |
| 2026-05-07 11:00 | -23.59498 | 128.93559 | 40274 ft | 441 kts | 305° |
| 2026-05-07 11:00 | -23.55491 | 128.88489 | 40273 ft | 441 kts | 305° |
| 2026-05-07 11:01 | -23.51485 | 128.83425 | 40270 ft | 441 kts | 305° |
| 2026-05-07 11:01 | -23.47484 | 128.78374 | 40265 ft | 440 kts | 305° |
| 2026-05-07 11:02 | -23.43506 | 128.73357 | 40268 ft | 440 kts | 305° |
| 2026-05-07 11:02 | -23.39474 | 128.68276 | 40265 ft | 440 kts | 305° |
| 2026-05-07 11:03 | -23.35490 | 128.63263 | 40268 ft | 440 kts | 304° |
| 2026-05-07 11:03 | -23.31488 | 128.58231 | 40260 ft | 440 kts | 304° |
| 2026-05-07 11:04 | -23.27485 | 128.53202 | 40262 ft | 439 kts | 304° |
| 2026-05-07 11:04 | -23.23480 | 128.48176 | 40257 ft | 439 kts | 304° |
| 2026-05-07 11:05 | -23.19477 | 128.43161 | 40247 ft | 439 kts | 305° |
| 2026-05-07 11:05 | -23.15468 | 128.38149 | 40243 ft | 438 kts | 304° |
| 2026-05-07 11:06 | -23.12150 | 128.34004 | 40252 ft | 437 kts | 304° |
| 2026-05-07 11:06 | -23.07507 | 128.28207 | 40252 ft | 437 kts | 304° |
| 2026-05-07 11:07 | -23.04162 | 128.24035 | 40255 ft | 437 kts | 304° |
| 2026-05-07 11:07 | -22.99514 | 128.18245 | 40223 ft | 437 kts | 304° |
| 2026-05-07 11:08 | -22.96192 | 128.14110 | 40248 ft | 437 kts | 304° |
| 2026-05-07 11:08 | -22.92187 | 128.09131 | 40248 ft | 437 kts | 304° |
| 2026-05-07 11:09 | -22.88183 | 128.04157 | 40240 ft | 437 kts | 304° |
| 2026-05-07 11:09 | -22.84179 | 127.99187 | 40240 ft | 437 kts | 304° |
| 2026-05-07 11:10 | -22.80174 | 127.94222 | 40220 ft | 437 kts | 304° |
| 2026-05-07 11:10 | -22.76165 | 127.89257 | 40229 ft | 437 kts | 304° |
| 2026-05-07 11:11 | -22.72179 | 127.84326 | 40239 ft | 437 kts | 304° |
| 2026-05-07 11:11 | -22.68169 | 127.79367 | 40247 ft | 437 kts | 304° |
| 2026-05-07 11:12 | -22.64160 | 127.74416 | 40245 ft | 437 kts | 304° |
| 2026-05-07 11:12 | -22.60145 | 127.69463 | 40243 ft | 438 kts | 304° |
| 2026-05-07 11:13 | -22.56127 | 127.64508 | 40233 ft | 438 kts | 304° |
| 2026-05-07 11:13 | -22.52105 | 127.59555 | 40239 ft | 438 kts | 304° |
| 2026-05-07 11:14 | -22.48104 | 127.54634 | 40234 ft | 438 kts | 304° |
| 2026-05-07 11:14 | -22.44074 | 127.49680 | 40234 ft | 438 kts | 304° |
| 2026-05-07 11:15 | -22.40043 | 127.44732 | 40231 ft | 439 kts | 303° |
| 2026-05-07 11:15 | -22.36011 | 127.39787 | 40233 ft | 438 kts | 303° |
| 2026-05-07 11:16 | -22.31979 | 127.34844 | 40230 ft | 438 kts | 303° |
| 2026-05-07 11:16 | -22.27946 | 127.29905 | 40230 ft | 438 kts | 303° |
| 2026-05-07 11:17 | -22.23937 | 127.25001 | 40224 ft | 438 kts | 303° |
| 2026-05-07 11:17 | -22.19894 | 127.20061 | 40227 ft | 438 kts | 303° |
| 2026-05-07 11:18 | -22.15857 | 127.15131 | 40225 ft | 438 kts | 303° |
| 2026-05-07 11:18 | -22.11815 | 127.10200 | 40225 ft | 438 kts | 303° |
| 2026-05-07 11:19 | -22.07771 | 127.05271 | 40220 ft | 439 kts | 303° |
| 2026-05-07 11:19 | -22.03725 | 127.00345 | 40219 ft | 438 kts | 303° |
| 2026-05-07 11:20 | -21.99706 | 126.95459 | 40218 ft | 438 kts | 303° |
| 2026-05-07 11:20 | -21.95659 | 126.90546 | 40223 ft | 438 kts | 303° |
| 2026-05-07 11:21 | -21.91615 | 126.85632 | 40220 ft | 438 kts | 303° |
| 2026-05-07 11:21 | -21.87567 | 126.80719 | 40219 ft | 438 kts | 303° |
| 2026-05-07 11:22 | -21.83516 | 126.75809 | 40217 ft | 438 kts | 303° |
| 2026-05-07 11:22 | -21.79463 | 126.70901 | 40214 ft | 439 kts | 303° |
| 2026-05-07 11:23 | -21.75430 | 126.66023 | 40212 ft | 439 kts | 303° |
| 2026-05-07 11:23 | -21.71369 | 126.61115 | 40216 ft | 439 kts | 303° |
| 2026-05-07 11:24 | -21.67305 | 126.56208 | 40209 ft | 439 kts | 303° |
| 2026-05-07 11:24 | -21.63242 | 126.51307 | 40209 ft | 439 kts | 303° |
| 2026-05-07 11:25 | -21.59176 | 126.46405 | 40208 ft | 440 kts | 303° |
| 2026-05-07 11:25 | -21.55097 | 126.41494 | 40208 ft | 440 kts | 303° |
| 2026-05-07 11:26 | -21.51016 | 126.36584 | 40206 ft | 440 kts | 303° |
| 2026-05-07 11:26 | -21.46932 | 126.31677 | 40207 ft | 440 kts | 303° |
| 2026-05-07 11:27 | -21.42852 | 126.26777 | 40205 ft | 440 kts | 303° |
| 2026-05-07 11:27 | -21.38761 | 126.21869 | 40198 ft | 441 kts | 303° |
| 2026-05-07 11:28 | -21.34695 | 126.16993 | 40204 ft | 442 kts | 303° |
| 2026-05-07 11:28 | -21.30596 | 126.12085 | 40206 ft | 442 kts | 303° |
| 2026-05-07 11:29 | -21.26494 | 126.07178 | 40200 ft | 442 kts | 303° |
| 2026-05-07 11:29 | -21.22394 | 126.02277 | 40197 ft | 442 kts | 303° |
| 2026-05-07 11:30 | -21.18288 | 125.97373 | 40196 ft | 441 kts | 303° |
| 2026-05-07 11:30 | -21.14183 | 125.92475 | 40198 ft | 441 kts | 303° |
| 2026-05-07 11:31 | -21.10080 | 125.87583 | 40195 ft | 441 kts | 303° |
| 2026-05-07 11:31 | -21.05976 | 125.82695 | 40195 ft | 441 kts | 303° |
| 2026-05-07 11:32 | -20.99817 | 125.75367 | 40193 ft | 441 kts | 303° |
| 2026-05-07 11:33 | -20.95737 | 125.70519 | 40178 ft | 441 kts | 303° |
| 2026-05-07 11:33 | -20.91630 | 125.65643 | 40188 ft | 441 kts | 303° |
| 2026-05-07 11:34 | -20.87531 | 125.60767 | 40182 ft | 441 kts | 302° |
| 2026-05-07 11:34 | -20.83438 | 125.55882 | 40182 ft | 441 kts | 302° |
| 2026-05-07 11:35 | -20.79340 | 125.50998 | 40167 ft | 441 kts | 302° |
| 2026-05-07 11:35 | -20.75264 | 125.46151 | 40176 ft | 440 kts | 302° |
| 2026-05-07 11:36 | -20.71170 | 125.41285 | 40185 ft | 440 kts | 302° |
| 2026-05-07 11:36 | -20.67075 | 125.36422 | 40184 ft | 440 kts | 302° |
| 2026-05-07 11:37 | -20.62980 | 125.31564 | 40182 ft | 440 kts | 302° |
| 2026-05-07 11:37 | -20.58879 | 125.26703 | 40178 ft | 440 kts | 302° |
| 2026-05-07 11:38 | -20.54777 | 125.21846 | 40179 ft | 440 kts | 302° |
| 2026-05-07 11:38 | -20.50678 | 125.16996 | 40172 ft | 440 kts | 302° |
| 2026-05-07 11:39 | -20.46578 | 125.12149 | 40175 ft | 440 kts | 302° |
| 2026-05-07 11:39 | -20.42502 | 125.07335 | 40174 ft | 440 kts | 302° |
| 2026-05-07 11:40 | -20.38398 | 125.02491 | 40171 ft | 440 kts | 302° |
| 2026-05-07 11:40 | -20.34292 | 124.97651 | 40161 ft | 440 kts | 302° |
| 2026-05-07 11:41 | -20.30192 | 124.92823 | 40165 ft | 439 kts | 302° |
| 2026-05-07 11:41 | -20.26089 | 124.87991 | 40162 ft | 439 kts | 302° |
| 2026-05-07 11:42 | -20.21991 | 124.83170 | 40163 ft | 439 kts | 302° |
| 2026-05-07 11:42 | -20.17885 | 124.78344 | 40154 ft | 439 kts | 302° |
| 2026-05-07 11:43 | -20.13780 | 124.73526 | 40150 ft | 439 kts | 302° |
| 2026-05-07 11:43 | -20.09708 | 124.68750 | 40151 ft | 439 kts | 301° |
| 2026-05-07 11:44 | -20.05610 | 124.63947 | 40150 ft | 438 kts | 301° |
| 2026-05-07 11:44 | -20.01508 | 124.59142 | 40148 ft | 438 kts | 301° |
| 2026-05-07 11:45 | -19.97409 | 124.54344 | 40147 ft | 438 kts | 301° |
| 2026-05-07 11:45 | -19.93307 | 124.49548 | 40149 ft | 438 kts | 301° |
| 2026-05-07 11:46 | -19.89201 | 124.44751 | 40147 ft | 438 kts | 301° |
| 2026-05-07 11:46 | -19.85090 | 124.39953 | 40143 ft | 439 kts | 301° |
| 2026-05-07 11:47 | -19.80981 | 124.35159 | 40141 ft | 439 kts | 301° |
| 2026-05-07 11:47 | -19.76871 | 124.30371 | 40143 ft | 439 kts | 301° |
| 2026-05-07 11:48 | -19.72756 | 124.25580 | 40140 ft | 439 kts | 301° |
| 2026-05-07 11:48 | -19.68646 | 124.20796 | 40122 ft | 440 kts | 302° |
| 2026-05-07 11:49 | -19.64548 | 124.16031 | 40128 ft | 440 kts | 302° |
| 2026-05-07 11:49 | -19.60418 | 124.11235 | 40124 ft | 440 kts | 302° |
| 2026-05-07 11:50 | -19.56286 | 124.06441 | 40125 ft | 440 kts | 302° |
| 2026-05-07 11:50 | -19.52155 | 124.01651 | 40127 ft | 440 kts | 302° |
| 2026-05-07 11:51 | -19.48020 | 123.96860 | 40096 ft | 440 kts | 302° |
| 2026-05-07 11:51 | -19.43874 | 123.92057 | 40113 ft | 442 kts | 302° |
| 2026-05-07 11:52 | -19.39722 | 123.87254 | 40112 ft | 442 kts | 302° |
| 2026-05-07 11:52 | -19.35561 | 123.82445 | 40128 ft | 442 kts | 302° |
| 2026-05-07 11:53 | -19.31427 | 123.77672 | 40112 ft | 443 kts | 302° |
| 2026-05-07 11:53 | -19.27270 | 123.72875 | 40103 ft | 442 kts | 302° |
| 2026-05-07 11:54 | -19.23102 | 123.68068 | 40109 ft | 443 kts | 302° |
| 2026-05-07 11:54 | -19.18926 | 123.63255 | 40114 ft | 444 kts | 302° |
| 2026-05-07 11:55 | -19.14746 | 123.58443 | 40116 ft | 444 kts | 302° |
| 2026-05-07 11:55 | -19.10564 | 123.53634 | 40113 ft | 444 kts | 302° |
| 2026-05-07 11:56 | -19.06375 | 123.48820 | 40109 ft | 444 kts | 302° |
| 2026-05-07 11:56 | -19.02191 | 123.44015 | 40088 ft | 444 kts | 303° |
| 2026-05-07 11:57 | -18.97993 | 123.39196 | 40105 ft | 445 kts | 303° |
| 2026-05-07 11:57 | -18.94496 | 123.35187 | 40105 ft | 446 kts | 303° |
| 2026-05-07 11:58 | -18.89599 | 123.29602 | 40101 ft | 446 kts | 303° |
| 2026-05-07 11:58 | -18.85346 | 123.24821 | 40104 ft | 447 kts | 303° |
| 2026-05-07 11:59 | -18.81088 | 123.20042 | 40100 ft | 447 kts | 303° |
| 2026-05-07 11:59 | -18.77526 | 123.16039 | 40092 ft | 447 kts | 303° |
| 2026-05-07 12:00 | -18.73259 | 123.11241 | 40098 ft | 449 kts | 303° |
| 2026-05-07 12:00 | -18.68985 | 123.06438 | 40102 ft | 449 kts | 304° |
| 2026-05-07 12:01 | -18.64735 | 123.01670 | 40097 ft | 449 kts | 304° |
| 2026-05-07 12:01 | -18.60450 | 122.96866 | 40094 ft | 449 kts | 304° |
| 2026-05-07 12:02 | -18.56168 | 122.92068 | 40094 ft | 449 kts | 304° |
| 2026-05-07 12:02 | -18.51881 | 122.87266 | 40082 ft | 451 kts | 304° |
| 2026-05-07 12:03 | -18.47579 | 122.82452 | 40084 ft | 451 kts | 304° |
| 2026-05-07 12:03 | -18.43304 | 122.77674 | 40084 ft | 451 kts | 304° |
| 2026-05-07 12:04 | -18.38995 | 122.72862 | 40088 ft | 451 kts | 304° |
| 2026-05-07 12:04 | -18.34670 | 122.68035 | 40081 ft | 451 kts | 304° |
| 2026-05-07 12:05 | -18.30385 | 122.63256 | 40088 ft | 451 kts | 304° |
| 2026-05-07 12:05 | -18.26073 | 122.58449 | 40070 ft | 452 kts | 304° |
| 2026-05-07 12:06 | -18.21756 | 122.53642 | 40075 ft | 452 kts | 304° |
| 2026-05-07 12:06 | -18.17435 | 122.48833 | 40065 ft | 452 kts | 304° |
| 2026-05-07 12:07 | -18.13114 | 122.44030 | 40059 ft | 452 kts | 304° |
| 2026-05-07 12:07 | -18.08789 | 122.39225 | 40057 ft | 452 kts | 304° |
| 2026-05-07 12:08 | -18.04491 | 122.34452 | 40045 ft | 453 kts | 304° |
| 2026-05-07 12:08 | -18.00159 | 122.29645 | 40048 ft | 453 kts | 305° |
| 2026-05-07 12:09 | -17.95883 | 122.24793 | 40048 ft | 449 kts | 301° |
| 2026-05-07 12:09 | -17.92530 | 122.19403 | 40047 ft | 438 kts | 292° |
| 2026-05-07 12:10 | -17.89614 | 122.13800 | 40046 ft | 437 kts | 290° |
| 2026-05-07 12:10 | -17.86770 | 122.08167 | 40049 ft | 437 kts | 290° |
| 2026-05-07 12:11 | -17.83917 | 122.02535 | 40058 ft | 438 kts | 291° |
| 2026-05-07 12:11 | -17.81040 | 121.96899 | 40059 ft | 438 kts | 291° |
| 2026-05-07 12:12 | -17.78151 | 121.91261 | 40058 ft | 439 kts | 291° |
| 2026-05-07 12:12 | -17.75260 | 121.85625 | 40056 ft | 439 kts | 291° |
| 2026-05-07 12:13 | -17.72366 | 121.79986 | 40054 ft | 439 kts | 291° |
| 2026-05-07 12:13 | -17.69474 | 121.74354 | 40051 ft | 438 kts | 291° |
| 2026-05-07 12:14 | -17.66581 | 121.68725 | 40045 ft | 438 kts | 291° |
| 2026-05-07 12:14 | -17.63701 | 121.63126 | 40045 ft | 438 kts | 291° |
| 2026-05-07 12:15 | -17.60800 | 121.57489 | 40042 ft | 440 kts | 291° |
| 2026-05-07 12:15 | -17.57886 | 121.51834 | 40045 ft | 441 kts | 291° |
| 2026-05-07 12:16 | -17.54971 | 121.46183 | 40040 ft | 441 kts | 292° |
| 2026-05-07 12:16 | -17.52053 | 121.40533 | 40039 ft | 441 kts | 292° |
| 2026-05-07 12:17 | -17.49137 | 121.34889 | 40040 ft | 441 kts | 292° |
| 2026-05-07 12:17 | -17.46215 | 121.29237 | 40036 ft | 441 kts | 292° |
| 2026-05-07 12:18 | -17.43295 | 121.23595 | 40030 ft | 441 kts | 292° |
| 2026-05-07 12:18 | -17.40369 | 121.17946 | 40025 ft | 442 kts | 292° |
| 2026-05-07 12:19 | -17.37427 | 121.12267 | 40037 ft | 444 kts | 292° |
| 2026-05-07 12:19 | -17.34493 | 121.06615 | 40037 ft | 444 kts | 292° |
| 2026-05-07 12:20 | -17.31539 | 121.00929 | 40036 ft | 444 kts | 292° |
| 2026-05-07 12:20 | -17.28583 | 120.95244 | 40035 ft | 444 kts | 292° |
| 2026-05-07 12:21 | -17.25630 | 120.89566 | 40037 ft | 444 kts | 292° |
| 2026-05-07 12:21 | -17.22673 | 120.83889 | 40037 ft | 444 kts | 292° |
| 2026-05-07 12:22 | -17.19735 | 120.78251 | 40037 ft | 444 kts | 292° |
| 2026-05-07 12:22 | -17.16776 | 120.72576 | 40034 ft | 445 kts | 293° |
| 2026-05-07 12:23 | -17.13808 | 120.66891 | 40041 ft | 445 kts | 293° |
| 2026-05-07 12:23 | -17.10839 | 120.61208 | 40038 ft | 445 kts | 293° |
| 2026-05-07 12:24 | -17.07866 | 120.55524 | 40036 ft | 445 kts | 293° |
| 2026-05-07 12:24 | -17.04895 | 120.49847 | 40037 ft | 445 kts | 293° |
| 2026-05-07 12:25 | -17.01918 | 120.44163 | 40031 ft | 445 kts | 293° |
| 2026-05-07 12:25 | -16.98964 | 120.38529 | 40028 ft | 445 kts | 293° |
| 2026-05-07 12:26 | -16.95986 | 120.32852 | 40012 ft | 445 kts | 293° |
| 2026-05-07 12:26 | -16.93006 | 120.27177 | 40035 ft | 446 kts | 293° |
| 2026-05-07 12:27 | -16.90017 | 120.21491 | 40029 ft | 446 kts | 293° |
| 2026-05-07 12:27 | -16.87031 | 120.15815 | 40028 ft | 446 kts | 293° |
| 2026-05-07 12:28 | -16.84040 | 120.10133 | 40026 ft | 446 kts | 293° |
| 2026-05-07 12:28 | -16.81069 | 120.04494 | 40029 ft | 446 kts | 293° |
| 2026-05-07 12:29 | -16.78073 | 119.98814 | 40029 ft | 446 kts | 294° |
| 2026-05-07 12:29 | -16.75078 | 119.93142 | 40029 ft | 446 kts | 294° |
| 2026-05-07 12:30 | -16.72084 | 119.87473 | 40013 ft | 446 kts | 294° |
| 2026-05-07 12:30 | -16.69081 | 119.81791 | 40026 ft | 447 kts | 294° |
| 2026-05-07 12:31 | -16.66074 | 119.76107 | 40030 ft | 447 kts | 294° |
| 2026-05-07 12:31 | -16.63066 | 119.70427 | 40026 ft | 447 kts | 294° |
| 2026-05-07 12:32 | -16.60057 | 119.64749 | 40024 ft | 447 kts | 294° |
| 2026-05-07 12:32 | -16.57063 | 119.59110 | 40026 ft | 447 kts | 294° |
| 2026-05-07 12:33 | -16.52542 | 119.50596 | 40026 ft | 447 kts | 294° |
| 2026-05-07 12:33 | -16.49529 | 119.44927 | 40026 ft | 447 kts | 294° |
| 2026-05-07 12:34 | -16.46510 | 119.39248 | 40025 ft | 449 kts | 294° |
| 2026-05-07 12:34 | -16.43500 | 119.33590 | 40017 ft | 449 kts | 294° |
| 2026-05-07 12:35 | -16.40467 | 119.27897 | 40022 ft | 449 kts | 294° |
| 2026-05-07 12:35 | -16.37432 | 119.22208 | 40017 ft | 449 kts | 294° |
| 2026-05-07 12:36 | -16.34397 | 119.16521 | 40021 ft | 449 kts | 294° |
| 2026-05-07 12:36 | -16.31358 | 119.10831 | 40022 ft | 449 kts | 294° |
| 2026-05-07 12:37 | -16.28323 | 119.05154 | 40022 ft | 449 kts | 294° |
| 2026-05-07 12:37 | -16.25282 | 118.99469 | 40018 ft | 449 kts | 294° |
| 2026-05-07 12:38 | -16.22240 | 118.93787 | 40018 ft | 450 kts | 294° |
| 2026-05-07 12:38 | -16.19211 | 118.88134 | 40018 ft | 450 kts | 294° |
| 2026-05-07 12:39 | -16.16158 | 118.82441 | 40018 ft | 450 kts | 294° |
| 2026-05-07 12:39 | -16.13103 | 118.76750 | 40018 ft | 450 kts | 294° |
| 2026-05-07 12:40 | -16.10049 | 118.71064 | 40018 ft | 450 kts | 294° |
| 2026-05-07 12:40 | -16.06993 | 118.65379 | 40018 ft | 450 kts | 294° |
| 2026-05-07 12:41 | -16.03939 | 118.59703 | 40017 ft | 449 kts | 294° |
| 2026-05-07 12:41 | -16.00887 | 118.54034 | 40018 ft | 449 kts | 295° |
| 2026-05-07 12:42 | -15.97836 | 118.48370 | 40018 ft | 449 kts | 295° |
| 2026-05-07 12:42 | -15.94783 | 118.42709 | 40015 ft | 449 kts | 295° |
| 2026-05-07 12:43 | -15.91726 | 118.37046 | 40015 ft | 449 kts | 295° |
| 2026-05-07 12:43 | -15.88690 | 118.31423 | 40015 ft | 449 kts | 295° |
| 2026-05-07 12:44 | -15.85632 | 118.25767 | 40016 ft | 449 kts | 295° |
| 2026-05-07 12:44 | -15.82576 | 118.20118 | 40015 ft | 449 kts | 295° |
| 2026-05-07 12:45 | -15.79517 | 118.14467 | 40015 ft | 449 kts | 295° |
| 2026-05-07 12:45 | -15.76457 | 118.08819 | 39996 ft | 449 kts | 295° |
| 2026-05-07 12:46 | -15.73388 | 118.03157 | 40011 ft | 451 kts | 295° |
| 2026-05-07 12:46 | -15.70304 | 117.97474 | 40013 ft | 452 kts | 295° |
| 2026-05-07 12:47 | -15.67216 | 117.91789 | 40012 ft | 452 kts | 295° |
| 2026-05-07 12:47 | -15.64130 | 117.86113 | 40009 ft | 452 kts | 295° |
| 2026-05-07 12:48 | -15.61061 | 117.80471 | 40010 ft | 452 kts | 295° |
| 2026-05-07 12:48 | -15.57973 | 117.74796 | 40009 ft | 452 kts | 295° |
| 2026-05-07 12:49 | -15.54880 | 117.69119 | 40004 ft | 452 kts | 295° |
| 2026-05-07 12:49 | -15.51788 | 117.63449 | 40004 ft | 452 kts | 295° |
| 2026-05-07 12:50 | -15.48691 | 117.57771 | 40004 ft | 453 kts | 295° |
| 2026-05-07 12:50 | -15.45610 | 117.52128 | 40005 ft | 453 kts | 295° |
| 2026-05-07 12:51 | -15.42504 | 117.46445 | 39995 ft | 453 kts | 295° |
| 2026-05-07 12:51 | -15.39396 | 117.40762 | 40002 ft | 453 kts | 295° |
| 2026-05-07 12:52 | -15.36286 | 117.35078 | 39999 ft | 453 kts | 295° |
| 2026-05-07 12:52 | -15.33696 | 117.30349 | 39999 ft | 453 kts | 295° |
| 2026-05-07 12:53 | -15.30583 | 117.24668 | 39999 ft | 453 kts | 295° |
| 2026-05-07 12:53 | -15.27467 | 117.18988 | 39999 ft | 453 kts | 295° |
| 2026-05-07 12:54 | -15.24349 | 117.13305 | 39994 ft | 454 kts | 295° |
| 2026-05-07 12:54 | -15.21221 | 117.07610 | 39996 ft | 455 kts | 295° |
| 2026-05-07 12:55 | -15.18086 | 117.01909 | 39996 ft | 455 kts | 295° |
| 2026-05-07 12:55 | -15.14953 | 116.96212 | 39993 ft | 455 kts | 295° |
| 2026-05-07 12:56 | -15.11843 | 116.90554 | 39993 ft | 455 kts | 295° |
| 2026-05-07 12:56 | -15.08708 | 116.84856 | 39992 ft | 456 kts | 295° |
| 2026-05-07 12:57 | -15.05568 | 116.79156 | 39996 ft | 456 kts | 295° |
| 2026-05-07 12:57 | -15.02428 | 116.73460 | 39993 ft | 456 kts | 295° |
| 2026-05-07 12:58 | -14.99283 | 116.67758 | 39988 ft | 456 kts | 295° |
| 2026-05-07 12:58 | -14.96136 | 116.62058 | 39992 ft | 457 kts | 296° |
| 2026-05-07 12:59 | -14.93006 | 116.56392 | 39985 ft | 457 kts | 296° |
| 2026-05-07 12:59 | -14.89847 | 116.50678 | 39989 ft | 457 kts | 296° |
| 2026-05-07 13:00 | -14.86689 | 116.44971 | 39984 ft | 457 kts | 296° |
| 2026-05-07 13:00 | -14.83526 | 116.39258 | 39986 ft | 458 kts | 296° |
| 2026-05-07 13:01 | -14.80365 | 116.33553 | 39984 ft | 458 kts | 296° |
| 2026-05-07 13:01 | -14.77201 | 116.27847 | 39984 ft | 458 kts | 296° |
| 2026-05-07 13:02 | -14.74032 | 116.22143 | 39968 ft | 458 kts | 296° |
| 2026-05-07 13:02 | -14.70857 | 116.16432 | 39978 ft | 459 kts | 296° |
| 2026-05-07 13:03 | -14.67679 | 116.10715 | 39975 ft | 459 kts | 296° |
| 2026-05-07 13:03 | -14.64499 | 116.04999 | 39985 ft | 459 kts | 296° |
| 2026-05-07 13:04 | -14.61339 | 115.99319 | 39981 ft | 459 kts | 296° |
| 2026-05-07 13:04 | -14.58153 | 115.93595 | 39975 ft | 459 kts | 296° |
| 2026-05-07 13:05 | -14.54971 | 115.87879 | 39984 ft | 460 kts | 296° |
| 2026-05-07 13:05 | -14.51783 | 115.82159 | 39975 ft | 460 kts | 296° |
| 2026-05-07 13:06 | -14.48589 | 115.76436 | 39977 ft | 460 kts | 296° |
| 2026-05-07 13:06 | -14.45417 | 115.70757 | 39975 ft | 460 kts | 296° |
| 2026-05-07 13:07 | -14.42215 | 115.65029 | 39979 ft | 461 kts | 296° |
| 2026-05-07 13:07 | -14.39011 | 115.59300 | 39976 ft | 461 kts | 296° |
| 2026-05-07 13:08 | -14.35800 | 115.53565 | 39974 ft | 461 kts | 296° |
| 2026-05-07 13:08 | -14.32588 | 115.47829 | 39979 ft | 461 kts | 296° |
| 2026-05-07 13:09 | -14.29397 | 115.42137 | 39972 ft | 461 kts | 296° |
| 2026-05-07 13:09 | -14.26184 | 115.36410 | 39973 ft | 461 kts | 296° |
| 2026-05-07 13:10 | -14.22970 | 115.30686 | 39968 ft | 461 kts | 296° |
| 2026-05-07 13:10 | -14.19754 | 115.24960 | 39962 ft | 462 kts | 296° |
| 2026-05-07 13:11 | -14.16530 | 115.19223 | 39974 ft | 463 kts | 296° |
| 2026-05-07 13:11 | -14.13302 | 115.13488 | 39970 ft | 463 kts | 296° |
| 2026-05-07 13:12 | -14.10072 | 115.07751 | 39971 ft | 463 kts | 296° |
| 2026-05-07 13:12 | -14.06841 | 115.02017 | 39970 ft | 463 kts | 296° |
| 2026-05-07 13:13 | -14.03608 | 114.96282 | 39966 ft | 463 kts | 296° |
| 2026-05-07 13:13 | -14.00373 | 114.90548 | 39967 ft | 463 kts | 296° |
| 2026-05-07 13:14 | -13.97135 | 114.84813 | 39968 ft | 463 kts | 296° |
| 2026-05-07 13:14 | -13.93897 | 114.79082 | 39967 ft | 463 kts | 296° |
| 2026-05-07 13:15 | -13.90654 | 114.73344 | 39967 ft | 464 kts | 297° |
| 2026-05-07 13:15 | -13.87417 | 114.67623 | 39966 ft | 465 kts | 297° |
| 2026-05-07 13:16 | -13.84163 | 114.61877 | 39968 ft | 465 kts | 297° |
| 2026-05-07 13:16 | -13.80909 | 114.56135 | 39968 ft | 465 kts | 297° |
| 2026-05-07 13:17 | -13.77643 | 114.50375 | 39969 ft | 465 kts | 297° |
| 2026-05-07 13:17 | -13.74402 | 114.44662 | 39967 ft | 465 kts | 297° |
| 2026-05-07 13:18 | -13.71138 | 114.38912 | 39966 ft | 465 kts | 297° |
| 2026-05-07 13:18 | -13.67875 | 114.33170 | 39968 ft | 465 kts | 297° |
| 2026-05-07 13:19 | -13.64618 | 114.27440 | 39958 ft | 465 kts | 297° |
| 2026-05-07 13:19 | -13.61339 | 114.21676 | 39965 ft | 466 kts | 297° |
| 2026-05-07 13:20 | -13.58082 | 114.15956 | 39967 ft | 467 kts | 297° |
| 2026-05-07 13:20 | -13.54804 | 114.10202 | 39965 ft | 467 kts | 297° |
| 2026-05-07 13:21 | -13.51521 | 114.04443 | 39965 ft | 467 kts | 297° |
| 2026-05-07 13:21 | -13.48236 | 113.98685 | 39969 ft | 467 kts | 297° |
| 2026-05-07 13:22 | -13.44953 | 113.92933 | 39965 ft | 467 kts | 297° |
| 2026-05-07 13:22 | -13.41685 | 113.87213 | 39962 ft | 467 kts | 297° |
| 2026-05-07 13:23 | -13.38399 | 113.81464 | 39966 ft | 467 kts | 297° |
| 2026-05-07 13:23 | -13.35112 | 113.75717 | 39967 ft | 467 kts | 297° |
| 2026-05-07 13:24 | -13.31821 | 113.69969 | 39964 ft | 466 kts | 297° |
| 2026-05-07 13:24 | -13.28533 | 113.64228 | 39962 ft | 466 kts | 297° |
| 2026-05-07 13:25 | -13.25242 | 113.58485 | 39963 ft | 466 kts | 297° |
| 2026-05-07 13:25 | -13.21950 | 113.52745 | 39963 ft | 466 kts | 297° |
| 2026-05-07 13:26 | -13.18682 | 113.47051 | 39961 ft | 466 kts | 297° |
| 2026-05-07 13:26 | -13.15389 | 113.41316 | 39961 ft | 466 kts | 297° |
| 2026-05-07 13:27 | -13.12097 | 113.35588 | 39959 ft | 466 kts | 297° |
| 2026-05-07 13:27 | -13.08804 | 113.29860 | 39955 ft | 466 kts | 297° |
| 2026-05-07 13:28 | -13.05505 | 113.24125 | 39960 ft | 467 kts | 297° |
| 2026-05-07 13:28 | -13.02197 | 113.18381 | 39961 ft | 467 kts | 297° |
| 2026-05-07 13:29 | -12.98892 | 113.12644 | 39961 ft | 467 kts | 297° |
| 2026-05-07 13:29 | -12.95586 | 113.06909 | 39956 ft | 467 kts | 297° |
| 2026-05-07 13:30 | -12.92280 | 113.01179 | 39959 ft | 467 kts | 297° |
| 2026-05-07 13:30 | -12.88996 | 112.95490 | 39959 ft | 467 kts | 297° |
| 2026-05-07 13:31 | -12.85689 | 112.89766 | 39957 ft | 467 kts | 297° |
| 2026-05-07 13:31 | -12.82378 | 112.84039 | 39955 ft | 467 kts | 297° |
| 2026-05-07 13:32 | -12.79069 | 112.78314 | 39955 ft | 468 kts | 297° |
| 2026-05-07 13:32 | -12.75751 | 112.72581 | 39948 ft | 467 kts | 297° |
| 2026-05-07 13:33 | -12.72436 | 112.66858 | 39948 ft | 467 kts | 297° |
| 2026-05-07 13:33 | -12.69142 | 112.61173 | 39950 ft | 467 kts | 297° |
| 2026-05-07 13:34 | -12.64166 | 112.52591 | 39950 ft | 467 kts | 298° |
| 2026-05-07 13:35 | -12.60845 | 112.46870 | 39948 ft | 467 kts | 298° |
| 2026-05-07 13:35 | -12.57524 | 112.41151 | 39949 ft | 466 kts | 298° |
| 2026-05-07 13:36 | -12.54204 | 112.35438 | 39946 ft | 466 kts | 298° |
| 2026-05-07 13:36 | -12.50889 | 112.29737 | 39956 ft | 467 kts | 298° |
| 2026-05-07 13:37 | -12.47582 | 112.24052 | 39955 ft | 468 kts | 298° |
| 2026-05-07 13:37 | -12.44248 | 112.18326 | 39944 ft | 468 kts | 298° |
| 2026-05-07 13:38 | -12.40912 | 112.12599 | 39954 ft | 468 kts | 298° |
| 2026-05-07 13:38 | -12.37579 | 112.06880 | 39952 ft | 468 kts | 298° |
| 2026-05-07 13:39 | -12.34247 | 112.01168 | 39954 ft | 467 kts | 298° |
| 2026-05-07 13:39 | -12.30914 | 111.95456 | 39953 ft | 467 kts | 298° |
| 2026-05-07 13:40 | -12.27578 | 111.89745 | 39951 ft | 467 kts | 298° |
| 2026-05-07 13:40 | -12.24245 | 111.84040 | 39951 ft | 467 kts | 298° |
| 2026-05-07 13:41 | -12.20934 | 111.78375 | 39949 ft | 468 kts | 298° |
| 2026-05-07 13:41 | -12.17588 | 111.72657 | 39948 ft | 468 kts | 298° |
| 2026-05-07 13:42 | -12.14242 | 111.66941 | 39952 ft | 468 kts | 298° |
| 2026-05-07 13:42 | -12.10896 | 111.61229 | 39951 ft | 468 kts | 298° |
| 2026-05-07 13:43 | -12.07550 | 111.55519 | 39947 ft | 468 kts | 298° |
| 2026-05-07 13:43 | -12.04766 | 111.50773 | 39949 ft | 468 kts | 298° |
| 2026-05-07 13:44 | -12.01353 | 111.45102 | 39948 ft | 470 kts | 303° |
| 2026-05-07 13:44 | -11.96911 | 111.40181 | 39952 ft | 474 kts | 316° |
| 2026-05-07 13:45 | -11.91821 | 111.35882 | 39941 ft | 475 kts | 319° |
| 2026-05-07 13:45 | -11.85773 | 111.31012 | 39947 ft | 477 kts | 319° |
| 2026-05-07 13:46 | -11.81409 | 111.27495 | 39947 ft | 477 kts | 319° |
| 2026-05-07 13:46 | -11.76215 | 111.23283 | 39945 ft | 477 kts | 319° |
| 2026-05-07 13:47 | -11.71058 | 111.19088 | 39950 ft | 477 kts | 319° |
| 2026-05-07 13:47 | -11.65873 | 111.14870 | 39943 ft | 477 kts | 319° |
| 2026-05-07 13:48 | -11.60682 | 111.10651 | 39943 ft | 475 kts | 319° |
| 2026-05-07 13:48 | -11.55506 | 111.06445 | 39943 ft | 476 kts | 319° |
| 2026-05-07 13:49 | -11.50327 | 111.02240 | 39939 ft | 476 kts | 319° |
| 2026-05-07 13:49 | -11.45136 | 110.98028 | 39941 ft | 476 kts | 319° |
| 2026-05-07 13:50 | -11.39990 | 110.93853 | 39938 ft | 476 kts | 319° |
| 2026-05-07 13:50 | -11.34805 | 110.89650 | 39936 ft | 476 kts | 319° |
| 2026-05-07 13:51 | -11.29619 | 110.85447 | 39941 ft | 476 kts | 319° |
| 2026-05-07 13:51 | -11.24435 | 110.81247 | 39938 ft | 477 kts | 319° |
| 2026-05-07 13:52 | -11.19241 | 110.77043 | 39933 ft | 476 kts | 319° |
| 2026-05-07 13:52 | -11.14060 | 110.72851 | 39936 ft | 476 kts | 319° |
| 2026-05-07 13:53 | -11.08878 | 110.68659 | 39939 ft | 476 kts | 319° |
| 2026-05-07 13:53 | -11.03694 | 110.64468 | 39939 ft | 476 kts | 319° |
| 2026-05-07 13:54 | -10.98509 | 110.60278 | 39936 ft | 476 kts | 319° |
| 2026-05-07 13:54 | -10.93357 | 110.56116 | 39934 ft | 476 kts | 319° |
| 2026-05-07 13:55 | -10.88159 | 110.51919 | 39934 ft | 477 kts | 319° |
| 2026-05-07 13:55 | -10.82962 | 110.47725 | 39936 ft | 477 kts | 319° |
| 2026-05-07 13:56 | -10.77762 | 110.43532 | 39939 ft | 477 kts | 319° |
| 2026-05-07 13:56 | -10.72570 | 110.39346 | 39930 ft | 477 kts | 319° |
| 2026-05-07 13:57 | -10.67367 | 110.35153 | 39929 ft | 477 kts | 319° |
| 2026-05-07 13:57 | -10.62170 | 110.30967 | 39935 ft | 476 kts | 319° |
| 2026-05-07 13:58 | -10.56973 | 110.26782 | 39929 ft | 477 kts | 319° |
| 2026-05-07 13:58 | -10.51803 | 110.22621 | 39930 ft | 477 kts | 319° |
| 2026-05-07 13:59 | -10.46597 | 110.18434 | 39930 ft | 477 kts | 319° |
| 2026-05-07 13:59 | -10.41394 | 110.14250 | 39928 ft | 477 kts | 319° |
| 2026-05-07 14:00 | -10.36189 | 110.10066 | 39932 ft | 477 kts | 319° |
| 2026-05-07 14:00 | -10.30982 | 110.05883 | 39929 ft | 477 kts | 319° |
| 2026-05-07 14:01 | -10.25767 | 110.01695 | 39927 ft | 477 kts | 319° |
| 2026-05-07 14:01 | -10.20593 | 109.97542 | 39924 ft | 477 kts | 319° |
| 2026-05-07 14:02 | -10.15381 | 109.93360 | 39925 ft | 477 kts | 319° |
| 2026-05-07 14:02 | -10.10176 | 109.89186 | 39924 ft | 477 kts | 319° |
| 2026-05-07 14:03 | -10.04968 | 109.85011 | 39923 ft | 477 kts | 319° |
| 2026-05-07 14:03 | -9.99760 | 109.80837 | 39922 ft | 477 kts | 319° |
| 2026-05-07 14:04 | -9.94554 | 109.76668 | 39919 ft | 477 kts | 319° |
| 2026-05-07 14:04 | -9.89346 | 109.72498 | 39922 ft | 477 kts | 319° |
| 2026-05-07 14:05 | -9.84142 | 109.68334 | 39921 ft | 476 kts | 319° |
| 2026-05-07 14:05 | -9.78939 | 109.64175 | 39924 ft | 476 kts | 319° |
| 2026-05-07 14:06 | -9.73762 | 109.60038 | 39920 ft | 476 kts | 319° |
| 2026-05-07 14:06 | -9.68560 | 109.55877 | 39916 ft | 477 kts | 319° |
| 2026-05-07 14:07 | -9.63353 | 109.51714 | 39920 ft | 477 kts | 320° |
| 2026-05-07 14:07 | -9.58142 | 109.47556 | 39916 ft | 477 kts | 320° |
| 2026-05-07 14:08 | -9.52922 | 109.43391 | 39917 ft | 478 kts | 319° |
| 2026-05-07 14:08 | -9.47697 | 109.39221 | 39916 ft | 478 kts | 320° |
| 2026-05-07 14:09 | -9.42472 | 109.35053 | 39911 ft | 478 kts | 320° |
| 2026-05-07 14:09 | -9.37249 | 109.30892 | 39911 ft | 478 kts | 319° |
| 2026-05-07 14:10 | -9.31984 | 109.26696 | 39918 ft | 487 kts | 320° |
| 2026-05-07 14:10 | -9.26634 | 109.22409 | 39913 ft | 492 kts | 319° |
| 2026-05-07 14:11 | -9.21324 | 109.18107 | 39914 ft | 493 kts | 319° |